Latest Coastal Weather Observations for Rhyll

IDV60701

Issued at 2:21 am EST Friday 29 May 2015 (issued every 10 minutes, with the page automatically refreshed every 10 minutes)

About coastal observations | Map of coastal stations | Coastal observations for VIC | Marine services | Other Formats
Station Details ID: 086373 Name: RHYLL Lat: -38.46 Lon: 145.31 Height: 13.4 m
Data from the previous 72 hours. | See also: Recent months at Rhyll
Date/Time
EST
Temp

°C
Wind Pressure Rain
since 9am
mm
Weather Cloud Vis
km
Sea
Height
m
Swell
Dir
 
Speed
knots
Gust
knots
hPa Trend Height
m
Period
s
Dir
29/02:00am 11.9 W 8 19 1017.0 - 2.4 - - - - - - -
29/01:30am 11.8 WNW 5 11 1016.7 - 2.4 - - - - - - -
29/01:00am 12.1 W 7 13 1016.6 - 2.4 - - - - - - -
29/12:30am 12.4 WNW 7 15 1016.4 - 2.4 - - - - - - -
29/12:00am 12.7 WNW 5 12 1016.3 - 2.4 - - - - - - -
 
Date/Time
EST
Temp

°C
Wind Pressure Rain
since 9am
mm
Weather Cloud Vis
km
Sea
Height
m
Swell
Dir
 
Speed
knots
Gust
knots
hPa Trend Height
m
Period
s
Dir
28/11:30pm 12.9 WNW 6 11 1016.0 - 2.4 - - - - - - -
28/11:00pm 12.8 W 6 12 1015.9 - 2.4 - - - - - - -
28/10:30pm 12.8 WNW 5 11 1015.8 - 2.4 - - - - - - -
28/10:00pm 12.8 WNW 6 13 1015.8 - 2.4 - - - - - - -
28/09:30pm 12.9 W 7 12 1015.5 - 2.4 - - - - - - -
28/09:00pm 13.0 W 6 10 1015.2 - 2.4 Rain - - - - - -
28/08:30pm 13.2 W 5 9 1015.2 - 1.2 - - - - - - -
28/08:00pm 13.6 W 6 11 1014.8 - 0.6 - - - - - - -
28/07:30pm 14.1 WSW 8 16 1014.0 - 0.4 - - - - - - -
28/07:00pm 15.2 WSW 6 11 1013.8 - 0.2 - - - - - - -
28/06:30pm 15.5 W 5 10 1013.1 - 0.2 - - - - - - -
28/06:00pm 15.6 WNW 4 7 1012.8 - 0.0 - - - - - - -
28/05:30pm 16.5 N 16 20 1011.9 - 0.0 - - - - - - -
28/05:00pm 16.9 NNW 19 23 1011.9 - 0.0 - - - - - - -
28/04:30pm 16.2 NNW 14 20 1012.0 - 0.0 - - - - - - -
28/04:00pm 17.0 NNW 17 23 1012.0 - 0.0 - - - - - - -
28/03:30pm 17.7 N 18 22 1012.0 - 0.0 - - - - - - -
28/03:00pm 17.3 NNW 16 22 1012.3 - 0.0 - - - - - - -
28/02:30pm 17.8 NNW 17 24 1012.4 - 0.0 - - - - - - -
28/02:00pm 18.0 NNW 17 22 1012.5 - 0.0 - - - - - - -
28/01:30pm 17.8 NNW 14 19 1013.0 - 0.0 - - - - - - -
28/01:00pm 17.7 NNW 16 23 1013.2 - 0.0 - - - - - - -
28/12:30pm 17.2 NNW 16 22 1013.6 - 0.0 - - - - - - -
28/12:00pm 17.0 NNW 15 21 1014.2 - 0.0 - - - - - - -
28/11:30am 16.2 NNW 21 27 1014.4 - 0.0 - - - - - - -
28/11:19am 16.6 NNW 20 30 1014.7 - 0.0 - - - - - - -
28/11:00am 16.7 NNW 20 25 1015.1 - 0.0 - - - - - - -
28/10:30am 15.6 NNW 16 21 1015.7 - 0.0 - - - - - - -
28/10:00am 14.8 NNW 16 19 1016.0 - 0.0 - - - - - - -
28/09:30am 13.9 N 13 16 1016.3 - 0.0 - - - - - - -
28/09:00am 13.9 NNW 13 19 1016.4 - 0.2 - - - - - - -
28/08:30am 13.9 NNW 16 20 1016.3 - 0.2 - - - - - - -
28/08:00am 13.8 NNW 15 18 1016.4 - 0.2 - - - - - - -
28/07:30am 13.6 N 16 21 1016.4 - 0.2 - - - - - - -
28/07:00am 13.4 N 17 21 1016.3 - 0.2 - - - - - - -
28/06:30am 12.9 N 14 17 1016.2 - 0.2 - - - - - - -
28/06:00am 13.2 N 15 19 1016.0 - 0.2 - - - - - - -
28/05:30am 13.0 NNW 12 15 1016.1 - 0.2 - - - - - - -
28/05:00am 13.1 NNW 15 18 1016.2 - 0.2 - - - - - - -
28/04:30am 13.1 NNW 15 19 1016.2 - 0.2 - - - - - - -
28/04:00am 13.3 NNW 16 19 1016.1 - 0.2 - - - - - - -
28/03:30am 13.3 NNW 14 18 1016.3 - 0.2 - - - - - - -
28/03:00am 13.2 NNW 12 16 1016.5 - 0.2 - - - - - - -
28/02:30am 13.4 NNW 13 16 1016.8 - 0.2 - - - - - - -
28/02:00am 13.7 NNW 12 15 1017.1 - 0.2 - - - - - - -
28/01:30am 13.8 NNW 11 16 1017.1 - 0.2 - - - - - - -
28/01:00am 13.6 NNW 11 15 1017.2 - 0.2 - - - - - - -
28/12:30am 13.5 NNW 13 17 1017.3 - 0.2 - - - - - - -
28/12:00am 13.7 NNW 12 16 1017.5 - 0.2 - - - - - - -
 
Date/Time
EST
Temp

°C
Wind Pressure Rain
since 9am
mm
Weather Cloud Vis
km
Sea
Height
m
Swell
Dir
 
Speed
knots
Gust
knots
hPa Trend Height
m
Period
s
Dir
27/11:30pm 13.9 NNW 13 18 1017.7 - 0.2 - - - - - - -
27/11:00pm 13.9 NNW 11 15 1017.8 - 0.2 - - - - - - -
27/10:30pm 13.7 NNW 8 12 1017.9 - 0.2 - - - - - - -
27/10:00pm 13.4 N 8 10 1017.8 - 0.2 - - - - - - -
27/09:30pm 13.5 N 9 11 1018.0 - 0.2 - - - - - - -
27/09:00pm 13.9 NNW 12 16 1018.0 - 0.2 - - - - - - -
27/08:30pm 13.8 N 9 12 1018.2 - 0.2 - - - - - - -
27/08:00pm 14.4 NNW 13 17 1018.2 - 0.2 - - - - - - -
27/07:30pm 14.8 NNW 16 21 1018.1 - 0.2 - - - - - - -
27/07:00pm 14.9 NNW 16 19 1018.1 - 0.2 - - - - - - -
27/06:30pm 14.9 NNW 14 17 1017.8 - 0.2 - - - - - - -
27/06:00pm 15.4 NNW 16 19 1017.6 - 0.2 - - - - - - -
27/05:30pm 15.1 N 14 16 1017.3 - 0.2 - - - - - - -
27/05:00pm 15.3 NNW 11 14 1017.1 - 0.2 - - - - - - -
27/04:30pm 15.8 N 12 15 1017.0 - 0.2 - - - - - - -
27/04:00pm 15.8 NNW 10 13 1017.2 - 0.2 - - - - - - -
27/03:30pm 15.8 NNW 10 12 1017.3 - 0.2 - - - - - - -
27/03:00pm 16.1 N 12 15 1017.3 - 0.2 - - - - - - -
27/02:30pm 16.2 NNW 12 15 1017.4 - 0.2 - - - - - - -
27/02:00pm 16.2 NNW 11 17 1017.6 - 0.2 - - - - - - -
27/01:30pm 16.5 NNW 15 18 1017.7 - 0.2 - - - - - - -
27/01:00pm 15.8 NNW 10 13 1018.2 - 0.2 - - - - - - -
27/12:30pm 14.2 N 11 13 1018.7 - 0.2 - - - - - - -
27/12:00pm 14.6 NNW 9 13 1019.3 - 0.0 - - - - - - -
27/11:30am 14.5 NNW 12 16 1019.8 - 0.0 - - - - - - -
27/11:00am 15.0 NNW 13 17 1019.9 - 0.0 - - - - - - -
27/10:30am 14.5 N 11 14 1020.1 - 0.0 - - - - - - -
27/10:00am 13.8 N 4 6 1020.4 - 0.0 - - - - - - -
27/09:30am 12.8 NNE 4 8 1020.2 - 0.0 - - - - - - -
27/09:00am 13.8 NNE 5 7 1020.2 - 0.0 - - - - - - -
27/08:30am 11.9 NE 5 7 1020.3 - 0.0 - - - - - - -
27/08:00am 11.6 NE 5 7 1020.4 - 0.0 - - - - - - -
27/07:30am 11.5 NE 7 9 1020.2 - 0.0 - - - - - - -
27/07:00am 11.6 NNE 7 10 1020.4 - 0.0 - - - - - - -
27/06:30am 11.2 NNE 4 6 1020.3 - 0.0 - - - - - - -
27/06:00am 11.1 NNE 2 5 1020.5 - 0.0 - - - - - - -
27/05:30am 11.2 NNW 7 8 1020.7 - 0.0 - - - - - - -
27/05:00am 11.9 N 5 6 1020.7 - 0.0 - - - - - - -
27/04:30am 11.3 NNE 3 5 1020.7 - 0.0 - - - - - - -
27/04:00am 11.3 NE 3 4 1021.0 - 0.0 - - - - - - -
27/03:30am 11.3 NNE 5 7 1021.0 - 0.0 - - - - - - -
27/03:00am 11.2 NNE 4 6 1021.5 - 0.0 - - - - - - -
27/02:30am 11.1 NNE 4 6 1021.7 - 0.0 - - - - - - -
27/02:00am 11.2 NE 7 8 1022.0 - 0.0 - - - - - - -
27/01:30am 11.4 NNE 6 7 1022.2 - 0.0 - - - - - - -
27/01:00am 11.0 NE 4 6 1022.4 - 0.0 - - - - - - -
27/12:30am 11.5 NNE 3 5 1022.9 - 0.0 - - - - - - -
27/12:00am 11.6 NNE 5 8 1023.2 - 0.0 - - - - - - -
 
Date/Time
EST
Temp

°C
Wind Pressure Rain
since 9am
mm
Weather Cloud Vis
km
Sea
Height
m
Swell
Dir
 
Speed
knots
Gust
knots
hPa Trend Height
m
Period
s
Dir
26/11:30pm 11.5 NE 7 8 1023.4 - 0.0 - - - - - - -
26/11:00pm 11.9 NE 5 6 1023.6 - 0.0 - - - - - - -
26/10:30pm 11.9 NNE 6 7 1023.7 - 0.0 - - - - - - -
26/10:00pm 11.8 NE 7 8 1023.9 - 0.0 - - - - - - -
26/09:30pm 11.7 ENE 7 9 1024.0 - 0.0 - - - - - - -
26/09:00pm 11.8 ENE 8 9 1024.1 - 0.0 - - - - - - -
26/08:30pm 11.9 NE 5 7 1024.4 - 0.0 - - - - - - -
26/08:00pm 12.6 NNE 5 6 1024.6 - 0.0 - - - - - - -
26/07:30pm 12.3 NE 6 7 1024.7 - 0.0 - - - - - - -
26/07:00pm 12.2 ENE 4 5 1024.7 - 0.0 - - - - - - -
26/06:30pm 12.4 E 3 4 1024.9 - 0.0 - - - - - - -
26/06:00pm 13.0 NE 3 4 1025.0 - 0.0 - - - - - - -
26/05:30pm 13.0 NE 6 7 1024.8 - 0.0 - - - - - - -
26/05:00pm 13.0 NE 3 4 1024.8 - 0.0 - - - - - - -
26/04:30pm 12.9 CALM 0 0 1025.1 - 0.0 - - - - - - -
26/04:00pm 13.2 CALM 0 0 1025.3 - 0.0 - - - - - - -
26/03:30pm 13.6 CALM 0 0 1025.5 - 0.0 - - - - - - -
26/03:00pm 13.7 CALM 0 0 1025.5 - 0.0 - - - - - - -
26/02:30pm 14.6 ENE 2 3 1025.8 - 0.0 - - - - - - -
26/02:00pm 14.3 ENE 3 3 1026.2 - 0.0 - - - - - - -
26/01:30pm 14.2 E 3 3 1026.6 - 0.0 - - - - - - -
26/01:00pm 15.3 E 3 4 1027.0 - 0.0 - - - - - - -
26/12:30pm 16.3 ENE 4 4 1027.5 - 0.0 - - - - - - -
26/12:00pm 13.6 ENE 3 4 1028.0 - 0.0 - - - - - - -
26/11:30am 13.4 ENE 3 4 1028.5 - 0.0 - - - - - - -
26/11:00am 12.0 N 4 5 1029.2 - 0.0 - - - - - - -
26/10:30am 11.4 N 3 5 1029.5 - 0.0 - - - - - - -
26/10:00am 11.1 NNE 2 3 1029.4 - 0.0 - - - - - - -
26/09:30am 11.2 NE 6 8 1029.5 - 0.0 - - - - - - -
26/09:00am 10.4 NE 6 8 1029.5 - 0.0 - - - - - - -
26/08:30am 9.4 NNE 6 9 1029.6 - 0.0 - - - - - - -
26/08:00am 8.7 NE 8 9 1029.5 - 0.0 - - - - - - -
26/07:30am 8.3 NE 8 9 1029.5 - 0.0 - - - - - - -
26/07:00am 8.3 NNE 4 7 1029.3 - 0.0 - - - - - - -
26/06:30am 8.2 NNE 5 8 1029.3 - 0.0 - - - - - - -
26/06:00am 8.2 NNE 5 6 1029.1 - 0.0 - - - - - - -
26/05:30am 8.5 NNE 4 7 1029.1 - 0.0 - - - - - - -
26/05:00am 8.8 N 4 6 1029.1 - 0.0 - - - - - - -
26/04:30am 8.8 NNE 6 8 1029.0 - 0.0 - - - - - - -
26/04:00am 8.6 NE 6 8 1029.0 - 0.0 - - - - - - -
26/03:30am 8.6 NNE 4 6 1029.0 - 0.0 - - - - - - -
26/03:00am 8.6 NE 4 6 1029.3 - 0.0 - - - - - - -
26/02:30am 8.8 NNE 3 5 1029.5 - 0.0 - - - - - - -

Other Formats:

Comma delimited format used in spreadsheet applications
http://www.bom.gov.au/fwo/IDV60701/IDV60701.94892.axf

JavaScript Object Notation format (JSON) in row-major order
http://www.bom.gov.au/fwo/IDV60701/IDV60701.94892.json